createdAt,value
2023-02-02T00:00:24.845Z,99.99
2023-02-02T00:01:24.849Z,99.99
2023-02-02T00:02:24.842Z,99.99
2023-02-02T00:03:24.810Z,99.99
2023-02-02T00:04:24.806Z,99.99
2023-02-02T00:05:25.108Z,99.99
2023-02-02T00:06:24.762Z,99.99
2023-02-02T00:07:24.757Z,99.99
2023-02-02T00:08:24.738Z,99.99
2023-02-02T00:09:24.744Z,99.99
2023-02-02T00:10:24.719Z,99.99
2023-02-02T00:11:24.722Z,99.99
2023-02-02T00:12:24.701Z,99.99
2023-02-02T00:13:24.677Z,99.99
2023-02-02T00:14:24.662Z,99.99
2023-02-02T00:15:25.014Z,99.99
2023-02-02T00:16:24.675Z,99.99
2023-02-02T00:17:24.616Z,99.99
2023-02-02T00:18:24.607Z,99.99
2023-02-02T00:19:24.614Z,99.99
2023-02-02T00:20:24.590Z,99.99
2023-02-02T00:21:24.581Z,99.99
2023-02-02T00:22:24.548Z,99.99
2023-02-02T00:23:24.546Z,99.99
2023-02-02T00:24:24.571Z,99.99
2023-02-02T00:25:24.836Z,99.99
2023-02-02T00:26:24.515Z,99.99
2023-02-02T00:27:24.486Z,99.99
2023-02-02T00:28:24.476Z,99.99
2023-02-02T00:29:24.490Z,99.99
2023-02-02T00:30:24.546Z,99.99
2023-02-02T00:31:24.510Z,99.99
2023-02-02T00:32:24.426Z,99.99
2023-02-02T00:33:24.418Z,99.99
2023-02-02T00:34:30.392Z,99.99
2023-02-02T00:35:24.818Z,99.99
2023-02-02T00:36:24.384Z,99.99
2023-02-02T00:37:24.363Z,99.99
2023-02-02T00:38:24.341Z,99.99
2023-02-02T00:39:24.339Z,99.99
2023-02-02T00:40:24.318Z,99.99
2023-02-02T00:41:24.330Z,99.99
2023-02-02T00:42:24.293Z,99.99
2023-02-02T00:43:24.287Z,99.99
2023-02-02T00:44:24.266Z,99.99
2023-02-02T00:45:24.687Z,99.99
2023-02-02T00:46:24.239Z,99.99
2023-02-02T00:47:24.230Z,99.99
2023-02-02T00:48:24.214Z,99.99
2023-02-02T00:49:24.207Z,99.99
2023-02-02T00:50:24.220Z,99.99
2023-02-02T00:51:24.195Z,99.99
2023-02-02T00:52:24.174Z,99.99
2023-02-02T00:53:24.154Z,99.99
2023-02-02T00:54:24.142Z,99.99
2023-02-02T00:55:24.486Z,99.99
2023-02-02T00:56:24.128Z,99.99
2023-02-02T00:57:24.123Z,99.99
2023-02-02T00:58:24.089Z,99.99
2023-02-02T00:59:24.075Z,99.99
2023-02-02T01:00:24.057Z,99.99
2023-02-02T01:01:24.126Z,99.99
2023-02-02T01:02:24.078Z,99.99
2023-02-02T01:03:24.023Z,99.99
2023-02-02T01:04:24.003Z,99.99
2023-02-02T01:05:24.370Z,99.99
2023-02-02T01:06:23.995Z,99.99
2023-02-02T01:07:23.973Z,99.99
2023-02-02T01:08:23.950Z,99.99
2023-02-02T01:09:23.956Z,99.99
2023-02-02T01:10:23.927Z,99.99
2023-02-02T01:11:23.950Z,99.99
2023-02-02T01:12:23.906Z,99.99
2023-02-02T01:13:23.889Z,99.99
2023-02-02T01:14:23.877Z,99.99
2023-02-02T01:15:24.266Z,99.99
2023-02-02T01:16:23.854Z,99.99
2023-02-02T01:17:23.837Z,99.99
2023-02-02T01:18:23.825Z,99.99
2023-02-02T01:19:23.818Z,99.99
2023-02-02T01:20:23.835Z,99.99
2023-02-02T01:21:23.815Z,99.99
2023-02-02T01:22:23.767Z,99.99
2023-02-02T01:23:23.765Z,99.99
2023-02-02T01:24:23.745Z,99.99
2023-02-02T01:25:24.105Z,99.99
2023-02-02T01:26:23.763Z,99.99
2023-02-02T01:27:23.712Z,99.99
2023-02-02T01:28:23.698Z,99.99
2023-02-02T01:29:23.681Z,99.99
2023-02-02T01:30:23.667Z,99.99
2023-02-02T01:31:23.726Z,99.99
2023-02-02T01:32:23.643Z,99.99
2023-02-02T01:33:23.628Z,99.99
2023-02-02T01:35:36.698Z,99.99
2023-02-02T01:36:37.671Z,99.99
2023-02-02T01:37:37.650Z,99.99
2023-02-02T01:38:37.661Z,99.99
2023-02-02T01:39:37.637Z,99.99
2023-02-02T01:40:37.675Z,99.99
2023-02-02T01:41:37.631Z,99.99
2023-02-02T01:42:37.600Z,99.99
2023-02-02T01:43:37.626Z,99.99
2023-02-02T01:44:37.569Z,99.99
2023-02-02T01:45:37.579Z,99.99
2023-02-02T01:46:37.593Z,99.99
2023-02-02T01:47:37.529Z,99.99
2023-02-02T01:48:37.520Z,99.99
2023-02-02T01:49:37.559Z,99.99
2023-02-02T01:50:37.495Z,99.99
2023-02-02T01:51:37.501Z,99.99
2023-02-02T01:52:37.488Z,99.99
2023-02-02T01:53:37.456Z,99.99
2023-02-02T01:54:37.438Z,99.99
2023-02-02T01:55:37.429Z,99.99
2023-02-02T01:56:37.439Z,99.99
2023-02-02T01:57:37.405Z,99.99
2023-02-02T01:58:37.392Z,99.99
2023-02-02T01:59:37.409Z,99.99
2023-02-02T02:00:37.356Z,99.99
2023-02-02T02:01:37.480Z,99.99
2023-02-02T02:02:37.444Z,99.99
2023-02-02T02:03:37.323Z,99.99
2023-02-02T02:04:37.331Z,99.99
2023-02-02T02:05:37.363Z,99.99
2023-02-02T02:06:37.281Z,99.99
2023-02-02T02:07:37.307Z,99.99
2023-02-02T02:08:37.310Z,99.99
2023-02-02T02:09:37.240Z,99.99
2023-02-02T02:10:37.233Z,99.99
2023-02-02T02:11:37.240Z,99.99
2023-02-02T02:12:37.226Z,99.99
2023-02-02T02:13:37.184Z,99.99
2023-02-02T02:14:37.198Z,99.99
2023-02-02T02:15:37.156Z,99.99
2023-02-02T02:16:37.235Z,99.99
2023-02-02T02:17:37.252Z,99.99
2023-02-02T02:18:37.128Z,99.99
2023-02-02T02:19:37.105Z,99.99
2023-02-02T02:20:37.092Z,99.99
2023-02-02T02:21:37.106Z,99.99
2023-02-02T02:22:37.087Z,99.99
2023-02-02T02:23:37.049Z,99.99
2023-02-02T02:24:37.070Z,99.99
2023-02-02T02:25:37.029Z,99.99
2023-02-02T02:26:37.086Z,99.99
2023-02-02T02:27:37.027Z,99.99
2023-02-02T02:28:36.992Z,99.99
2023-02-02T02:29:36.976Z,99.99
2023-02-02T02:30:37.108Z,99.99
2023-02-02T02:31:37.092Z,99.99
2023-02-02T02:32:36.949Z,99.99
2023-02-02T02:33:36.961Z,99.99
2023-02-02T02:34:36.919Z,99.99
2023-02-02T02:35:36.901Z,99.99
2023-02-02T02:36:36.942Z,99.99
2023-02-02T02:37:36.870Z,99.99
2023-02-02T02:38:36.877Z,99.99
2023-02-02T02:39:36.849Z,99.99
2023-02-02T02:40:36.872Z,99.99
2023-02-02T02:41:36.832Z,99.99
2023-02-02T02:42:36.917Z,99.99
2023-02-02T02:43:36.836Z,99.99
2023-02-02T02:44:36.796Z,99.99
2023-02-02T02:45:36.771Z,99.99
2023-02-02T02:46:36.802Z,99.99
2023-02-02T02:47:36.768Z,99.99
2023-02-02T02:48:36.734Z,99.99
2023-02-02T02:49:36.729Z,99.99
2023-02-02T02:50:36.724Z,99.99
2023-02-02T02:51:36.686Z,99.99
2023-02-02T02:52:36.702Z,99.99
2023-02-02T02:53:36.680Z,99.99
2023-02-02T02:54:36.659Z,99.99
2023-02-02T02:55:36.641Z,99.99
2023-02-02T02:56:36.643Z,99.99
2023-02-02T02:57:36.636Z,99.99
2023-02-02T02:58:36.612Z,99.99
2023-02-02T02:59:36.670Z,99.99
2023-02-02T03:00:36.593Z,99.99
2023-02-02T03:01:36.628Z,99.99
2023-02-02T03:02:36.587Z,99.99
2023-02-02T03:03:36.599Z,99.99
2023-02-02T03:04:36.526Z,99.99
2023-02-02T03:05:36.502Z,99.99
2023-02-02T03:06:36.595Z,99.99
2023-02-02T03:07:36.490Z,99.99
2023-02-02T03:08:36.463Z,99.99
2023-02-02T03:09:36.460Z,99.99
2023-02-02T03:10:36.444Z,99.99
2023-02-02T03:11:36.437Z,99.99
2023-02-02T03:12:36.510Z,99.99
2023-02-02T03:13:36.428Z,99.99
2023-02-02T03:14:36.409Z,99.99
2023-02-02T03:15:36.451Z,99.99
2023-02-02T03:16:36.367Z,99.99
2023-02-02T03:17:36.360Z,99.99
2023-02-02T03:18:36.373Z,99.99
2023-02-02T03:19:36.365Z,99.99
2023-02-02T03:20:36.322Z,99.99
2023-02-02T03:21:36.295Z,99.99
2023-02-02T03:22:36.325Z,99.99
2023-02-02T03:23:36.314Z,99.99
2023-02-02T03:24:36.266Z,99.99
2023-02-02T03:25:36.297Z,99.99
2023-02-02T03:26:36.295Z,99.99
2023-02-02T03:27:36.220Z,99.99
2023-02-02T03:28:36.317Z,99.99
2023-02-02T03:29:36.194Z,99.99
2023-02-02T03:30:36.211Z,99.99
2023-02-02T03:31:36.280Z,99.99
2023-02-02T03:32:36.159Z,99.99
2023-02-02T03:33:36.193Z,99.99
2023-02-02T03:34:36.220Z,99.99
2023-02-02T03:35:36.127Z,99.99
2023-02-02T03:36:36.125Z,99.99
2023-02-02T03:37:36.086Z,99.99
2023-02-02T03:38:36.187Z,99.99
2023-02-02T03:39:36.066Z,99.99
2023-02-02T03:40:36.055Z,99.99
2023-02-02T03:41:36.073Z,99.99
2023-02-02T03:42:36.035Z,99.99
2023-02-02T03:43:36.042Z,99.99
2023-02-02T03:44:36.088Z,99.99
2023-02-02T03:45:35.984Z,99.99
2023-02-02T03:46:36.033Z,99.99
2023-02-02T03:47:36.007Z,99.99
2023-02-02T03:48:35.988Z,99.99
2023-02-02T03:49:35.943Z,99.99
2023-02-02T03:50:35.915Z,99.99
2023-02-02T03:51:35.999Z,99.99
2023-02-02T03:52:35.906Z,99.99
2023-02-02T03:53:35.902Z,99.99
2023-02-02T03:54:35.862Z,99.99
2023-02-02T03:55:35.869Z,99.99
2023-02-02T03:56:35.838Z,99.99
2023-02-02T03:57:35.834Z,99.99
2023-02-02T03:58:35.881Z,99.99
2023-02-02T03:59:35.814Z,99.99
2023-02-02T04:00:35.795Z,99.99
2023-02-02T04:01:35.839Z,99.99
2023-02-02T04:02:35.818Z,99.99
2023-02-02T04:03:35.790Z,99.99
2023-02-02T04:04:35.763Z,99.99
2023-02-02T04:05:35.737Z,99.99
2023-02-02T04:06:35.715Z,99.99
2023-02-02T04:07:35.702Z,99.99
2023-02-02T04:08:35.765Z,99.99
2023-02-02T04:09:35.679Z,99.99
2023-02-02T04:10:35.659Z,99.99
2023-02-02T04:11:35.743Z,99.99
2023-02-02T04:12:35.638Z,99.99
2023-02-02T04:13:35.678Z,99.99
2023-02-02T04:14:35.621Z,99.99
2023-02-02T04:15:35.619Z,99.99
2023-02-02T04:16:35.666Z,99.99
2023-02-02T04:17:35.575Z,99.99
2023-02-02T04:18:35.618Z,99.99
2023-02-02T04:19:35.558Z,99.99
2023-02-02T04:20:35.546Z,99.99
2023-02-02T04:21:35.569Z,99.99
2023-02-02T04:22:35.532Z,99.99
2023-02-02T04:23:35.540Z,99.99
2023-02-02T04:24:37.921Z,99.99
2023-02-02T04:25:35.471Z,99.99
2023-02-02T04:26:35.503Z,99.99
2023-02-02T04:27:35.453Z,99.99
2023-02-02T04:28:35.499Z,99.99
2023-02-02T04:29:35.423Z,99.99
2023-02-02T04:30:35.431Z,99.99
2023-02-02T04:31:35.493Z,99.99
2023-02-02T04:32:35.371Z,99.99
2023-02-02T04:33:35.399Z,99.99
2023-02-02T04:34:35.407Z,99.99
2023-02-02T04:35:35.347Z,99.99
2023-02-02T04:36:35.344Z,99.99
2023-02-02T04:37:35.318Z,99.99
2023-02-02T04:38:35.351Z,99.99
2023-02-02T04:39:35.293Z,99.99
2023-02-02T04:40:35.277Z,99.99
2023-02-02T04:41:35.264Z,99.99
2023-02-02T04:42:35.342Z,99.99
2023-02-02T04:43:35.362Z,99.99
2023-02-02T04:44:35.236Z,99.99
2023-02-02T04:45:35.280Z,99.99
2023-02-02T04:46:35.201Z,99.99
2023-02-02T04:47:35.228Z,99.99
2023-02-02T04:48:35.247Z,99.99
2023-02-02T04:49:35.188Z,99.99
2023-02-02T04:50:35.144Z,99.99
2023-02-02T04:51:35.137Z,99.99
2023-02-02T04:52:35.122Z,99.99
2023-02-02T04:53:35.249Z,99.99
2023-02-02T04:54:35.100Z,99.99
2023-02-02T04:55:35.084Z,99.99
2023-02-02T04:56:35.168Z,99.99
2023-02-02T04:57:35.060Z,99.99
2023-02-02T04:58:35.060Z,99.99
2023-02-02T04:59:35.112Z,99.99
2023-02-02T05:00:35.011Z,99.99
2023-02-02T05:01:35.013Z,99.99
2023-02-02T05:02:34.978Z,99.99
2023-02-02T05:03:34.973Z,99.99
2023-02-02T05:04:35.036Z,99.99
2023-02-02T05:05:34.956Z,99.99
2023-02-02T05:06:34.936Z,99.99
2023-02-02T05:07:34.938Z,99.99
2023-02-02T05:08:34.940Z,99.99
2023-02-02T05:09:34.924Z,99.99
2023-02-02T05:10:34.883Z,99.99
2023-02-02T05:11:34.893Z,99.99
2023-02-02T05:12:34.863Z,99.99
2023-02-02T05:13:34.857Z,99.99
2023-02-02T05:14:34.884Z,99.99
2023-02-02T05:15:34.844Z,99.99
2023-02-02T05:16:34.823Z,99.99
2023-02-02T05:17:34.796Z,99.99
2023-02-02T05:18:34.807Z,99.99
2023-02-02T05:19:34.791Z,99.99
2023-02-02T05:20:34.771Z,99.99
2023-02-02T05:21:34.742Z,99.99
2023-02-02T05:22:34.737Z,99.99
2023-02-02T05:23:34.797Z,99.99
2023-02-02T05:24:34.723Z,99.99
2023-02-02T05:25:34.774Z,99.99
2023-02-02T05:26:34.670Z,99.99
2023-02-02T05:27:34.691Z,99.99
2023-02-02T05:28:34.698Z,99.99
2023-02-02T05:29:34.657Z,99.99
2023-02-02T05:30:34.707Z,99.99
2023-02-02T05:31:34.662Z,99.99
2023-02-02T05:32:34.607Z,99.99
2023-02-02T05:33:34.582Z,99.99
2023-02-02T05:34:34.692Z,99.99
2023-02-02T05:35:34.631Z,99.99
2023-02-02T05:36:34.556Z,99.99
2023-02-02T05:37:34.532Z,99.99
2023-02-02T05:38:34.563Z,99.99
2023-02-02T05:39:34.568Z,99.99
2023-02-02T05:40:34.484Z,99.99
2023-02-02T05:41:34.520Z,99.99
2023-02-02T05:42:34.502Z,99.99
2023-02-02T05:43:34.468Z,99.99
2023-02-02T05:44:34.608Z,99.99
2023-02-02T05:45:34.479Z,99.99
2023-02-02T05:46:34.447Z,99.99
2023-02-02T05:47:34.416Z,99.99
2023-02-02T05:48:34.413Z,99.99
2023-02-02T05:49:34.414Z,99.99
2023-02-02T05:50:34.360Z,99.99
2023-02-02T05:51:34.373Z,99.99
2023-02-02T05:52:34.519Z,99.99
2023-02-02T05:53:34.332Z,99.99
2023-02-02T05:54:34.415Z,99.99
2023-02-02T05:55:34.376Z,99.99
2023-02-02T05:56:34.292Z,99.99
2023-02-02T05:57:34.288Z,99.99
2023-02-02T05:58:34.312Z,99.99
2023-02-02T05:59:34.249Z,99.99
2023-02-02T06:00:34.344Z,99.99
2023-02-02T06:01:34.264Z,99.99
2023-02-02T06:02:34.204Z,99.99
2023-02-02T06:03:34.351Z,99.99
2023-02-02T06:04:34.297Z,99.99
2023-02-02T06:05:34.184Z,99.99
2023-02-02T06:06:34.165Z,99.99
2023-02-02T06:07:34.195Z,99.99
2023-02-02T06:08:34.157Z,99.99
2023-02-02T06:09:34.181Z,99.99
2023-02-02T06:10:34.215Z,99.99
2023-02-02T06:11:34.114Z,99.99
2023-02-02T06:12:34.105Z,99.99
2023-02-02T06:13:34.062Z,99.99
2023-02-02T06:14:34.122Z,99.99
2023-02-02T06:15:34.154Z,99.99
2023-02-02T06:16:34.061Z,99.99
2023-02-02T06:17:34.033Z,99.99
2023-02-02T06:18:34.287Z,99.99
2023-02-02T06:19:34.020Z,99.99
2023-02-02T06:20:34.020Z,99.99
2023-02-02T06:21:34.079Z,99.99
2023-02-02T06:22:33.952Z,99.99
2023-02-02T06:23:34.003Z,99.99
2023-02-02T06:24:33.935Z,99.99
2023-02-02T06:25:33.924Z,99.99
2023-02-02T06:26:33.984Z,99.99
2023-02-02T06:27:33.912Z,99.99
2023-02-02T06:28:33.887Z,99.99
2023-02-02T06:29:33.872Z,99.99
2023-02-02T06:30:33.919Z,99.99
2023-02-02T06:31:34.071Z,99.99
2023-02-02T06:32:33.830Z,99.99
2023-02-02T06:33:33.802Z,99.99
2023-02-02T06:34:33.824Z,99.99
2023-02-02T06:35:33.799Z,99.99
2023-02-02T06:36:33.764Z,99.99
2023-02-02T06:37:33.817Z,99.99
2023-02-02T06:38:33.832Z,99.99
2023-02-02T06:39:33.766Z,99.99
2023-02-02T06:40:33.719Z,99.99
2023-02-02T06:41:33.759Z,99.99
2023-02-02T06:42:33.696Z,99.99
2023-02-02T06:43:33.659Z,99.99
2023-02-02T06:44:33.655Z,99.99
2023-02-02T06:45:33.605Z,99.99
2023-02-02T06:46:33.671Z,99.99
2023-02-02T06:47:33.581Z,99.99
2023-02-02T06:48:33.567Z,99.99
2023-02-02T06:49:33.568Z,99.99
2023-02-02T06:50:33.562Z,99.99
2023-02-02T06:51:33.517Z,99.99
2023-02-02T06:52:33.574Z,99.99
2023-02-02T06:53:33.510Z,99.99
2023-02-02T06:54:33.547Z,99.99
2023-02-02T06:55:33.473Z,99.99
2023-02-02T06:56:33.452Z,99.99
2023-02-02T06:57:33.497Z,99.99
2023-02-02T06:58:33.433Z,99.99
2023-02-02T06:59:33.495Z,99.99
2023-02-02T07:00:33.397Z,99.99
2023-02-02T07:01:33.527Z,99.99
2023-02-02T07:02:33.403Z,99.99
2023-02-02T07:03:33.434Z,99.99
2023-02-02T07:04:33.378Z,99.99
2023-02-02T07:05:33.370Z,99.99
2023-02-02T07:06:33.323Z,99.99
2023-02-02T07:07:33.364Z,99.99
2023-02-02T07:08:33.313Z,99.99
2023-02-02T07:09:33.291Z,99.99
2023-02-02T07:11:11.590Z,99.99
2023-02-02T07:11:35.316Z,99.99
2023-02-02T07:12:33.254Z,99.99
2023-02-02T07:13:33.289Z,99.99
2023-02-02T07:14:33.213Z,99.99
2023-02-02T07:15:33.241Z,99.99
2023-02-02T07:16:33.245Z,99.99
2023-02-02T07:17:33.180Z,99.99
2023-02-02T07:18:33.174Z,99.99
2023-02-02T07:19:33.161Z,99.99
2023-02-02T07:20:33.245Z,99.99
2023-02-02T07:21:33.127Z,99.99
2023-02-02T07:22:33.117Z,99.99
2023-02-02T07:23:33.178Z,99.99
2023-02-02T07:24:33.087Z,99.99
2023-02-02T07:25:33.102Z,99.99
2023-02-02T07:26:33.147Z,99.99
2023-02-02T07:27:33.109Z,99.99
2023-02-02T07:28:33.028Z,99.99
2023-02-02T07:29:33.069Z,99.99
2023-02-02T07:30:33.049Z,99.99
2023-02-02T07:31:35.840Z,99.99
2023-02-02T07:32:32.984Z,99.99
2023-02-02T07:33:32.971Z,99.99
2023-02-02T07:34:32.977Z,99.99
2023-02-02T07:35:32.957Z,99.99
2023-02-02T07:36:32.996Z,99.99
2023-02-02T07:37:32.929Z,99.99
2023-02-02T07:38:32.923Z,99.99
2023-02-02T07:39:32.894Z,99.99
2023-02-02T07:40:32.872Z,99.99
2023-02-02T07:41:32.895Z,99.99
2023-02-02T07:42:32.870Z,99.99
2023-02-02T07:43:32.914Z,99.99
2023-02-02T07:44:32.837Z,99.99
2023-02-02T07:45:32.835Z,99.99
2023-02-02T07:46:32.948Z,99.99
2023-02-02T07:47:32.807Z,99.99
2023-02-02T07:48:32.782Z,99.99
2023-02-02T07:49:32.797Z,99.99
2023-02-02T07:50:32.792Z,99.99
2023-02-02T07:51:32.774Z,99.99
2023-02-02T07:52:32.729Z,99.99
2023-02-02T07:53:32.766Z,99.99
2023-02-02T07:54:32.707Z,99.99
2023-02-02T07:55:32.751Z,99.99
2023-02-02T07:56:32.739Z,99.99
2023-02-02T07:57:32.670Z,99.99
2023-02-02T07:58:32.665Z,99.99
2023-02-02T07:59:32.712Z,99.99
2023-02-02T08:00:32.777Z,99.99
2023-02-02T08:01:32.701Z,99.99
2023-02-02T08:02:32.645Z,99.99
2023-02-02T08:03:32.598Z,99.99
2023-02-02T08:04:32.611Z,99.99
2023-02-02T08:05:32.551Z,99.99
2023-02-02T08:06:32.582Z,99.99
2023-02-02T08:07:32.576Z,99.99
2023-02-02T08:08:32.520Z,99.99
2023-02-02T08:09:32.503Z,99.99
2023-02-02T08:10:32.537Z,99.99
2023-02-02T08:11:32.508Z,99.99
2023-02-02T08:12:32.482Z,99.99
2023-02-02T08:13:32.471Z,99.99
2023-02-02T08:14:32.461Z,99.99
2023-02-02T08:15:32.764Z,99.99
2023-02-02T08:16:32.500Z,99.99
2023-02-02T08:17:32.405Z,99.99
2023-02-02T08:18:32.427Z,99.99
2023-02-02T08:19:32.383Z,99.99
2023-02-02T08:20:32.408Z,99.99
2023-02-02T08:21:32.434Z,99.99
2023-02-02T08:22:32.344Z,99.99
2023-02-02T08:23:32.329Z,99.99
2023-02-02T08:24:32.312Z,99.99
2023-02-02T08:25:32.303Z,99.99
2023-02-02T08:26:32.408Z,99.99
2023-02-02T08:27:32.779Z,99.99
2023-02-02T08:28:32.269Z,99.99
2023-02-02T08:29:32.254Z,99.99
2023-02-02T08:30:32.275Z,99.99
2023-02-02T08:31:32.320Z,99.99
2023-02-02T08:32:33.506Z,99.99
2023-02-02T08:33:32.184Z,99.99
2023-02-02T08:34:32.189Z,99.99
2023-02-02T08:35:32.173Z,99.99
2023-02-02T08:36:32.159Z,99.99
2023-02-02T08:37:32.163Z,99.99
2023-02-02T08:38:32.135Z,99.99
2023-02-02T08:39:32.121Z,99.99
2023-02-02T08:40:32.203Z,99.99
2023-02-02T08:41:32.160Z,99.99
2023-02-02T08:42:32.078Z,99.99
2023-02-02T08:43:32.103Z,99.99
2023-02-02T08:45:00.291Z,99.99
2023-02-02T08:46:08.168Z,99.99
2023-02-02T08:46:32.230Z,99.99
2023-02-02T08:47:32.028Z,99.99
2023-02-02T08:48:32.031Z,99.99
2023-02-02T08:49:32.004Z,99.99
2023-02-02T08:50:31.991Z,99.99
2023-02-02T08:51:32.210Z,99.99
2023-02-02T08:52:32.063Z,99.99
2023-02-02T08:53:31.946Z,99.99
2023-02-02T08:54:31.933Z,99.99
2023-02-02T08:55:31.909Z,99.99
2023-02-02T08:56:32.006Z,99.99
2023-02-02T08:57:31.899Z,99.99
2023-02-02T08:58:32.126Z,99.99
2023-02-02T08:59:31.865Z,99.99
2023-02-02T09:00:31.979Z,99.99
2023-02-02T09:01:31.859Z,99.99
2023-02-02T09:02:31.938Z,99.99
2023-02-02T09:03:31.877Z,99.99
2023-02-02T09:04:31.789Z,99.99
2023-02-02T09:05:31.849Z,99.99
2023-02-02T09:06:31.819Z,99.99
2023-02-02T09:07:31.743Z,99.99
2023-02-02T09:10:55.822Z,99.99
2023-02-02T09:11:56.200Z,99.99
2023-02-02T09:12:56.128Z,99.99
2023-02-02T09:13:56.129Z,99.99
2023-02-02T09:14:56.129Z,99.99
2023-02-02T09:15:56.165Z,99.99
2023-02-02T09:16:56.183Z,99.99
2023-02-02T09:17:56.056Z,99.99
2023-02-02T09:18:56.096Z,99.99
2023-02-02T09:19:56.069Z,99.99
2023-02-02T09:20:56.054Z,99.99
2023-02-02T09:21:56.038Z,99.99
2023-02-02T09:22:55.996Z,99.99
2023-02-02T09:23:55.998Z,99.99
2023-02-02T09:24:56.095Z,99.99
2023-02-02T09:25:55.977Z,99.99
2023-02-02T09:26:56.096Z,99.99
2023-02-02T09:27:55.988Z,99.99
2023-02-02T09:28:55.931Z,99.99
2023-02-02T09:29:56.044Z,99.99
2023-02-02T09:30:55.991Z,99.99
2023-02-02T09:31:56.057Z,99.99
2023-02-02T09:32:55.887Z,99.99
2023-02-02T09:33:55.872Z,99.99
2023-02-02T09:34:55.833Z,99.99
2023-02-02T09:35:55.922Z,99.99
2023-02-02T09:36:55.853Z,99.99
2023-02-02T09:37:55.833Z,99.99
2023-02-02T09:38:55.799Z,99.99
2023-02-02T09:39:55.931Z,99.99
2023-02-02T09:40:55.802Z,99.99
2023-02-02T09:41:55.799Z,99.99
2023-02-02T09:42:55.771Z,99.99
2023-02-02T09:43:55.744Z,99.99
2023-02-02T09:44:55.709Z,99.99
2023-02-02T09:45:55.758Z,99.99
2023-02-02T09:46:55.716Z,99.99
2023-02-02T09:47:55.742Z,99.99
2023-02-02T09:48:55.658Z,99.99
2023-02-02T09:49:55.672Z,99.99
2023-02-02T09:50:55.708Z,99.99
2023-02-02T09:51:55.712Z,99.99
2023-02-02T09:52:55.636Z,99.99
2023-02-02T09:53:56.221Z,99.99
2023-02-02T09:54:55.665Z,99.99
2023-02-02T09:55:55.586Z,99.99
2023-02-02T09:56:55.615Z,99.99
2023-02-02T09:57:55.547Z,99.99
2023-02-02T09:58:55.549Z,99.99
2023-02-02T09:59:55.523Z,99.99
2023-02-02T10:00:55.554Z,99.99
2023-02-02T10:01:55.617Z,99.99
2023-02-02T10:02:55.501Z,99.99
2023-02-02T10:03:55.651Z,99.99
2023-02-02T10:04:55.490Z,99.99
2023-02-02T10:05:55.537Z,99.99
2023-02-02T10:06:55.497Z,99.99
2023-02-02T10:07:55.430Z,99.99
2023-02-02T10:08:55.411Z,99.99
2023-02-02T10:09:55.417Z,99.99
2023-02-02T10:10:55.376Z,99.99
2023-02-02T10:11:55.440Z,99.99
2023-02-02T10:12:55.521Z,99.99
2023-02-02T10:13:55.356Z,99.99
2023-02-02T10:14:55.383Z,99.99
2023-02-02T10:15:55.338Z,99.99
2023-02-02T10:16:55.434Z,99.99
2023-02-02T10:17:55.325Z,99.99
2023-02-02T10:18:55.381Z,99.99
2023-02-02T10:19:55.269Z,99.99
2023-02-02T10:20:55.280Z,99.99
2023-02-02T10:21:55.240Z,99.99
2023-02-02T10:22:55.317Z,99.99
2023-02-02T10:23:55.246Z,99.99
2023-02-02T10:24:55.218Z,99.99
2023-02-02T10:25:55.188Z,99.99
2023-02-02T10:26:55.323Z,99.99
2023-02-02T10:27:55.420Z,99.99
2023-02-02T10:28:55.176Z,99.99
2023-02-02T10:29:55.169Z,99.99
2023-02-02T10:30:55.240Z,99.99
2023-02-02T10:31:55.311Z,99.99
2023-02-02T10:32:55.223Z,99.99
2023-02-02T10:33:55.170Z,99.99
2023-02-02T10:35:06.885Z,99.99
2023-02-02T10:35:55.078Z,99.99
2023-02-02T10:36:55.097Z,99.99
2023-02-02T10:37:55.053Z,99.99
2023-02-02T10:38:55.071Z,99.99
2023-02-02T10:39:55.057Z,99.99
2023-02-02T10:40:55.013Z,99.99
2023-02-02T10:41:55.016Z,99.99
2023-02-02T10:42:57.128Z,99.99
2023-02-02T10:43:54.988Z,99.99
2023-02-02T10:44:54.949Z,99.99
2023-02-02T10:45:55.018Z,99.99
2023-02-02T10:46:54.950Z,99.99
2023-02-02T10:47:54.923Z,99.99
2023-02-02T10:48:54.990Z,99.99
2023-02-02T10:49:56.344Z,99.99
2023-02-02T10:50:54.870Z,99.99
2023-02-02T10:51:54.888Z,99.99
2023-02-02T10:52:54.986Z,99.99
2023-02-02T10:53:54.913Z,99.99
2023-02-02T10:54:57.707Z,99.99
2023-02-02T10:55:54.816Z,99.99
2023-02-02T10:56:54.846Z,99.99
2023-02-02T10:57:54.802Z,99.99
2023-02-02T10:58:54.900Z,99.99
2023-02-02T10:59:54.774Z,99.99
2023-02-02T11:00:54.746Z,99.99
2023-02-02T11:01:54.810Z,99.99
2023-02-02T11:02:54.838Z,99.99
2023-02-02T11:03:54.782Z,99.99
2023-02-02T11:04:54.680Z,99.99
2023-02-02T11:05:54.684Z,99.99
2023-02-02T11:06:54.748Z,99.99
2023-02-02T11:07:54.670Z,99.99
2023-02-02T11:08:54.657Z,99.99
2023-02-02T11:09:54.652Z,99.99
2023-02-02T11:10:54.626Z,99.99
2023-02-02T11:11:55.131Z,99.99
2023-02-02T11:12:54.647Z,99.99
2023-02-02T11:13:54.593Z,99.99
2023-02-02T11:14:54.597Z,99.99
2023-02-02T11:15:54.627Z,99.99
2023-02-02T11:16:54.644Z,99.99
2023-02-02T11:17:54.923Z,99.99
2023-02-02T11:18:54.537Z,99.99
2023-02-02T11:19:54.516Z,99.99
2023-02-02T11:20:54.509Z,99.99
2023-02-02T11:21:54.503Z,99.99
2023-02-02T11:22:54.460Z,99.99
2023-02-02T11:23:54.469Z,99.99
2023-02-02T11:24:54.445Z,99.99
2023-02-02T11:25:54.440Z,99.99
2023-02-02T11:26:54.465Z,99.99
2023-02-02T11:27:54.407Z,99.99
2023-02-02T11:28:54.402Z,99.99
2023-02-02T11:29:54.449Z,99.99
2023-02-02T11:30:54.465Z,99.99
2023-02-02T11:31:54.520Z,99.99
2023-02-02T11:32:54.367Z,99.99
2023-02-02T11:33:54.416Z,99.99
2023-02-02T11:34:54.355Z,99.99
2023-02-02T11:35:54.322Z,99.99
2023-02-02T11:36:54.341Z,99.99
2023-02-02T11:37:54.292Z,99.99
2023-02-02T11:38:54.282Z,99.99
2023-02-02T11:39:54.297Z,99.99
2023-02-02T11:40:54.238Z,99.99
2023-02-02T11:41:54.298Z,99.99
2023-02-02T11:42:54.221Z,99.99
2023-02-02T11:43:54.263Z,99.99
2023-02-02T11:44:54.310Z,99.99
2023-02-02T11:45:54.167Z,99.99
2023-02-02T11:46:54.257Z,99.99
2023-02-02T11:47:54.130Z,99.99
2023-02-02T11:48:54.178Z,99.99
2023-02-02T11:49:54.108Z,99.99
2023-02-02T11:50:54.187Z,99.99
2023-02-02T11:51:54.117Z,99.99
2023-02-02T11:52:54.100Z,99.99
2023-02-02T11:53:54.158Z,99.99
2023-02-02T11:54:54.080Z,99.99
2023-02-02T11:55:54.052Z,99.99
2023-02-02T11:56:54.072Z,99.99
2023-02-02T11:57:54.021Z,99.99
2023-02-02T11:58:54.010Z,99.99
2023-02-02T11:59:54.027Z,99.99
2023-02-02T12:00:53.972Z,99.99
2023-02-02T12:01:53.996Z,99.99
2023-02-02T12:02:53.952Z,99.99
2023-02-02T12:03:53.976Z,99.99
2023-02-02T12:04:53.956Z,99.99
2023-02-02T12:05:53.939Z,99.99
2023-02-02T12:06:53.949Z,99.99
2023-02-02T12:07:53.886Z,99.88
2023-02-02T12:08:53.877Z,99.37
2023-02-02T12:09:53.884Z,99.78
2023-02-02T12:10:53.859Z,99.47
2023-02-02T12:11:53.852Z,99.47
2023-02-02T12:12:53.813Z,99.57
2023-02-02T12:13:53.815Z,99.78
2023-02-02T12:14:53.833Z,99.16
2023-02-02T12:15:53.825Z,99.26
2023-02-02T12:16:53.927Z,99.16
2023-02-02T12:17:53.752Z,98.65
2023-02-02T12:18:53.838Z,98.54
2023-02-02T12:19:53.755Z,99.06
2023-02-02T12:20:53.710Z,99.06
2023-02-02T12:21:53.717Z,98.96
2023-02-02T12:22:53.721Z,98.85
2023-02-02T12:23:53.706Z,98.75
2023-02-02T12:24:53.669Z,98.85
2023-02-02T12:25:53.681Z,98.23
2023-02-02T12:26:53.715Z,98.13
2023-02-02T12:27:53.618Z,97.82
2023-02-02T12:28:53.614Z,98.13
2023-02-02T12:29:53.624Z,97.61
2023-02-02T12:30:53.787Z,97.20
2023-02-02T12:31:53.679Z,97.51
2023-02-02T12:32:53.560Z,96.99
2023-02-02T12:33:53.641Z,96.27
2023-02-02T12:34:53.587Z,96.69
2023-02-02T12:35:53.540Z,96.69
2023-02-02T12:36:53.507Z,96.89
2023-02-02T12:37:53.519Z,96.69
2023-02-02T12:38:53.520Z,96.74
2023-02-02T12:39:53.476Z,96.69
2023-02-02T12:40:53.470Z,97.09
2023-02-02T12:41:53.467Z,96.79
2023-02-02T12:42:53.428Z,96.89
2023-02-02T12:43:53.439Z,96.89
2023-02-02T12:44:53.434Z,96.74
2023-02-02T12:45:53.457Z,96.17
2023-02-02T12:46:53.392Z,96.27
2023-02-02T12:47:53.413Z,96.44
2023-02-02T12:48:53.347Z,96.64
2023-02-02T12:49:53.367Z,96.58
2023-02-02T12:50:53.318Z,96.27
2023-02-02T12:51:53.409Z,96.17
2023-02-02T12:52:53.337Z,96.48
2023-02-02T12:54:32.558Z,96.27
2023-02-02T12:54:57.408Z,96.06
2023-02-02T12:55:53.267Z,96.37